createdAt,value
2023-02-11T00:01:22.243Z,21.77
2023-02-11T00:03:50.546Z,20.63
2023-02-11T00:06:19.281Z,19.80
2023-02-11T00:08:47.666Z,19.53
2023-02-11T00:11:17.777Z,17.87
2023-02-11T00:13:47.989Z,17.67
2023-02-11T00:16:18.141Z,17.43
2023-02-11T00:18:47.231Z,16.77
2023-02-11T00:21:17.509Z,19.27
2023-02-11T00:23:46.950Z,17.47
2023-02-11T00:26:16.318Z,16.70
2023-02-11T00:28:44.830Z,17.37
2023-02-11T00:31:16.271Z,16.80
2023-02-11T00:33:45.126Z,14.90
2023-02-11T00:36:16.360Z,16.40
2023-02-11T00:38:49.973Z,14.30
2023-02-11T00:41:19.611Z,14.20
2023-02-11T00:43:47.857Z,14.03
2023-02-11T00:46:17.691Z,13.87
2023-02-11T00:48:45.940Z,12.83
2023-02-11T00:51:14.650Z,14.10
2023-02-11T00:53:43.305Z,12.57
2023-02-11T00:56:11.493Z,13.03
2023-02-11T00:58:39.834Z,12.07
2023-02-11T01:01:08.108Z,12.00
2023-02-11T01:03:37.953Z,11.83
2023-02-11T01:06:06.955Z,11.80
2023-02-11T01:08:35.302Z,10.90
2023-02-11T01:11:06.592Z,9.93
2023-02-11T01:13:37.332Z,10.30
2023-02-11T01:16:09.186Z,10.23
2023-02-11T01:18:39.838Z,10.07
2023-02-11T01:21:08.045Z,11.50
2023-02-11T01:23:36.289Z,11.27
2023-02-11T01:26:06.270Z,10.60
2023-02-11T01:28:34.842Z,11.57
2023-02-11T01:31:03.823Z,11.00
2023-02-11T01:33:34.529Z,11.80
2023-02-11T01:36:05.722Z,12.10
2023-02-11T01:38:34.833Z,12.33
2023-02-11T01:41:05.566Z,12.17
2023-02-11T01:43:36.552Z,13.83
2023-02-11T01:46:18.787Z,11.77
2023-02-11T01:48:51.717Z,11.77
2023-02-11T01:51:27.730Z,12.37
2023-02-11T01:54:15.886Z,11.20
2023-02-11T01:57:08.276Z,11.23
2023-02-11T01:59:41.912Z,11.83
2023-02-11T02:02:13.905Z,10.77
2023-02-11T02:04:49.609Z,11.80
2023-02-11T02:07:29.341Z,11.20
2023-02-11T02:10:02.272Z,11.00
2023-02-11T02:12:30.572Z,12.50
2023-02-11T02:15:21.082Z,11.77
2023-02-11T02:17:59.919Z,12.87
2023-02-11T02:20:56.032Z,12.17
2023-02-11T02:23:33.601Z,10.97
2023-02-11T02:26:21.085Z,12.57
2023-02-11T02:29:35.009Z,12.33
2023-02-11T02:32:31.077Z,12.60
2023-02-11T02:35:07.018Z,13.23
2023-02-11T02:37:42.174Z,12.20
2023-02-11T02:40:15.087Z,13.13
2023-02-11T02:42:45.078Z,12.43
2023-02-11T02:45:13.946Z,12.80
2023-02-11T02:47:43.646Z,12.57
2023-02-11T02:50:16.121Z,13.33
2023-02-11T02:52:54.054Z,12.27
2023-02-11T02:55:34.804Z,13.20
2023-02-11T02:58:26.545Z,12.47
2023-02-11T03:01:02.913Z,12.23
2023-02-11T03:03:43.634Z,12.63
2023-02-11T03:06:19.257Z,11.70
2023-02-11T03:08:52.674Z,12.47
2023-02-11T03:11:23.049Z,11.87
2023-02-11T03:13:52.895Z,12.27
2023-02-11T03:16:24.077Z,12.13
2023-02-11T03:19:00.258Z,11.43
2023-02-11T03:21:29.468Z,11.33
2023-02-11T03:24:01.689Z,10.90
2023-02-11T03:26:34.054Z,11.43
2023-02-11T03:29:09.094Z,11.47
2023-02-11T03:31:43.008Z,11.07
2023-02-11T03:34:17.747Z,10.50
2023-02-11T03:36:51.001Z,10.33
2023-02-11T03:39:23.040Z,11.00
2023-02-11T03:41:53.606Z,10.90
2023-02-11T03:44:24.062Z,10.67
2023-02-11T03:46:55.207Z,11.27
2023-02-11T03:49:28.042Z,10.43
2023-02-11T03:51:57.075Z,9.73
2023-02-11T03:54:30.347Z,10.27
2023-02-11T03:57:01.893Z,9.80
2023-02-11T03:59:30.848Z,10.23
2023-02-11T04:01:59.653Z,10.90
2023-02-11T04:04:29.381Z,10.27
2023-02-11T04:06:57.708Z,9.03
2023-02-11T04:09:25.914Z,10.77
2023-02-11T04:11:54.196Z,10.73
2023-02-11T04:14:22.421Z,10.50
2023-02-11T04:16:50.605Z,11.13
2023-02-11T04:19:18.872Z,12.37
2023-02-11T04:21:48.532Z,11.13
2023-02-11T04:24:16.745Z,11.67
2023-02-11T04:26:44.938Z,11.03
2023-02-11T04:29:13.162Z,11.90
2023-02-11T04:31:41.459Z,12.70
2023-02-11T04:34:09.665Z,12.07
2023-02-11T04:36:37.978Z,11.93
2023-02-11T04:39:07.621Z,12.80
2023-02-11T04:41:35.904Z,12.87
2023-02-11T04:44:04.113Z,13.50
2023-02-11T04:46:32.370Z,12.90
2023-02-11T04:49:00.639Z,14.50
2023-02-11T04:51:28.940Z,13.30
2023-02-11T04:53:57.130Z,14.00
2023-02-11T04:56:26.720Z,13.10
2023-02-11T04:58:54.987Z,13.23
2023-02-11T05:01:23.269Z,13.50
2023-02-11T05:03:52.250Z,14.50
2023-02-11T05:06:20.469Z,14.07
2023-02-11T05:08:48.714Z,15.23
2023-02-11T05:11:19.496Z,13.67
2023-02-11T05:13:49.574Z,14.50
2023-02-11T05:16:18.516Z,13.70
2023-02-11T05:18:47.336Z,13.30
2023-02-11T05:21:17.632Z,15.07
2023-02-11T05:23:46.557Z,14.27
2023-02-11T05:26:15.317Z,14.93
2023-02-11T05:28:43.989Z,13.53
2023-02-11T05:31:14.964Z,12.77
2023-02-11T05:33:43.900Z,14.30
2023-02-11T05:36:14.324Z,14.40
2023-02-11T05:38:43.400Z,13.50
2023-02-11T05:41:12.902Z,14.83
2023-02-11T05:43:41.134Z,14.57
2023-02-11T05:46:09.400Z,14.83
2023-02-11T05:48:39.069Z,14.80
2023-02-11T05:51:07.380Z,14.53
2023-02-11T05:53:35.661Z,15.03
2023-02-11T05:56:03.970Z,14.87
2023-02-11T05:58:32.290Z,14.47
2023-02-11T06:01:00.457Z,14.40
2023-02-11T06:03:28.806Z,14.70
2023-02-11T06:05:58.347Z,15.17
2023-02-11T06:08:26.535Z,15.63
2023-02-11T06:10:54.753Z,15.60
2023-02-11T06:13:23.038Z,15.33
2023-02-11T06:15:57.731Z,13.57
2023-02-11T06:18:26.129Z,14.33
2023-02-11T06:20:54.339Z,15.03
2023-02-11T06:23:24.164Z,15.30
2023-02-11T06:25:52.982Z,15.70
2023-02-11T06:28:21.593Z,15.73
2023-02-11T06:30:49.929Z,14.37
2023-02-11T06:33:18.211Z,16.07
2023-02-11T06:35:46.422Z,16.97
2023-02-11T06:38:14.653Z,16.27
2023-02-11T06:40:48.844Z,15.17
2023-02-11T06:43:17.362Z,15.37
2023-02-11T06:45:45.782Z,16.97
2023-02-11T06:48:13.933Z,16.07
2023-02-11T06:50:42.263Z,15.70
2023-02-11T06:53:10.448Z,17.10
2023-02-11T06:55:38.692Z,16.03
2023-02-11T06:58:08.343Z,17.73
2023-02-11T07:00:36.570Z,16.03
2023-02-11T07:03:05.111Z,17.53
2023-02-11T07:05:34.250Z,17.93
2023-02-11T07:08:02.482Z,17.97
2023-02-11T07:10:30.916Z,18.97
2023-02-11T07:12:59.074Z,17.13
2023-02-11T07:15:28.791Z,17.33
2023-02-11T07:17:57.015Z,18.77
2023-02-11T07:20:25.475Z,17.60
2023-02-11T07:22:53.718Z,18.90
2023-02-11T07:25:22.157Z,19.00
2023-02-11T07:27:51.064Z,18.40
2023-02-11T07:30:19.410Z,20.63
2023-02-11T07:32:49.160Z,17.60
2023-02-11T07:35:17.584Z,19.83
2023-02-11T07:37:46.463Z,18.53
2023-02-11T07:40:14.710Z,19.47
2023-02-11T07:42:42.901Z,19.40
2023-02-11T07:45:12.836Z,18.53
2023-02-11T07:47:42.782Z,21.60
2023-02-11T07:50:12.658Z,22.87
2023-02-11T07:52:41.048Z,22.10
2023-02-11T07:55:10.079Z,21.10
2023-02-11T07:57:38.864Z,23.37
2023-02-11T08:00:07.982Z,21.80
2023-02-11T08:02:41.907Z,21.47
2023-02-11T08:05:11.194Z,21.57
2023-02-11T08:07:40.868Z,21.73
2023-02-11T08:10:09.617Z,23.07
2023-02-11T08:12:37.890Z,25.33
2023-02-11T08:15:06.545Z,24.73
2023-02-11T08:17:36.669Z,24.33
2023-02-11T08:20:05.769Z,25.37
2023-02-11T08:22:34.480Z,24.97
2023-02-11T08:25:04.373Z,26.03
2023-02-11T08:27:32.683Z,27.43
2023-02-11T08:30:01.949Z,24.97
2023-02-11T08:32:30.286Z,24.73
2023-02-11T08:34:58.634Z,25.33
2023-02-11T08:37:27.049Z,25.63
2023-02-11T08:39:55.402Z,25.17
2023-02-11T08:42:25.345Z,27.73
2023-02-11T08:44:53.665Z,24.10
2023-02-11T08:47:21.946Z,27.30
2023-02-11T08:49:50.379Z,26.00
2023-02-11T08:52:18.692Z,26.50
2023-02-11T08:54:47.227Z,23.73
2023-02-11T08:57:15.619Z,24.37
2023-02-11T08:59:45.401Z,25.80
2023-02-11T09:02:15.125Z,22.50
2023-02-11T09:04:43.869Z,23.47
2023-02-11T09:07:12.707Z,23.73
2023-02-11T09:09:41.077Z,23.80
2023-02-11T09:12:09.920Z,25.03
2023-02-11T09:14:38.466Z,23.97
2023-02-11T09:17:08.495Z,25.80
2023-02-11T09:19:37.233Z,24.37
2023-02-11T09:22:05.511Z,22.67
2023-02-11T09:24:33.806Z,23.37
2023-02-11T09:27:02.136Z,22.00
2023-02-11T09:29:30.458Z,22.67
2023-02-11T09:31:59.061Z,22.87
2023-02-11T09:34:28.885Z,22.90
2023-02-11T09:36:57.186Z,24.73
2023-02-11T09:39:26.772Z,23.93
2023-02-11T09:42:09.441Z,23.73
2023-02-11T09:44:39.624Z,23.13
2023-02-11T09:47:19.826Z,22.50
2023-02-11T09:49:53.904Z,21.27
2023-02-11T09:52:31.360Z,23.90
2023-02-11T09:55:01.795Z,24.00
2023-02-11T09:57:34.595Z,24.13
2023-02-11T10:00:05.011Z,24.50
2023-02-11T10:02:55.663Z,24.63
2023-02-11T10:05:39.770Z,23.83
2023-02-11T10:08:16.914Z,23.90
2023-02-11T10:10:53.207Z,23.13
2023-02-11T10:13:35.078Z,23.47
2023-02-11T10:16:14.829Z,22.83
2023-02-11T10:19:00.625Z,25.77
2023-02-11T10:21:40.639Z,24.80
2023-02-11T10:24:13.836Z,25.40
2023-02-11T10:26:42.898Z,25.20
2023-02-11T10:29:23.083Z,27.23
2023-02-11T10:31:53.029Z,25.40
2023-02-11T10:34:21.298Z,26.47
2023-02-11T10:36:51.024Z,25.80
2023-02-11T10:39:20.897Z,26.57
2023-02-11T10:41:52.509Z,28.20
2023-02-11T10:44:26.851Z,26.73
2023-02-11T10:46:55.675Z,28.27
2023-02-11T10:49:37.421Z,29.00
2023-02-11T10:52:23.882Z,29.30
2023-02-11T10:55:04.875Z,27.97
2023-02-11T10:57:36.779Z,29.43
2023-02-11T11:00:22.504Z,30.23
2023-02-11T11:02:57.218Z,30.50
2023-02-11T11:05:31.752Z,29.57
2023-02-11T11:08:03.375Z,30.60
2023-02-11T11:10:43.230Z,29.63
2023-02-11T11:13:33.536Z,30.23
2023-02-11T11:16:19.880Z,30.90
2023-02-11T11:18:49.758Z,30.57
2023-02-11T11:21:22.861Z,32.30
2023-02-11T11:23:57.008Z,30.73
2023-02-11T11:26:26.837Z,32.23
2023-02-11T11:28:59.054Z,33.00
2023-02-11T11:31:32.732Z,33.30
2023-02-11T11:34:04.388Z,32.33
2023-02-11T11:36:36.487Z,32.20
2023-02-11T11:39:19.677Z,35.00
2023-02-11T11:41:53.276Z,32.07
2023-02-11T11:44:27.850Z,34.67
2023-02-11T11:47:23.652Z,33.87
2023-02-11T11:50:11.272Z,32.60
2023-02-11T11:52:47.567Z,33.57
2023-02-11T11:55:22.157Z,33.23
2023-02-11T11:57:50.791Z,32.13
2023-02-11T12:00:22.242Z,33.53
2023-02-11T12:03:19.756Z,34.07
2023-02-11T12:06:00.135Z,34.50
2023-02-11T12:08:38.886Z,35.67
2023-02-11T12:11:17.222Z,35.03
2023-02-11T12:13:59.959Z,36.73
2023-02-11T12:16:39.924Z,35.87
2023-02-11T12:19:43.638Z,34.73
2023-02-11T12:22:13.875Z,34.50
2023-02-11T12:25:06.917Z,35.03
2023-02-11T12:27:45.453Z,35.60
2023-02-11T12:30:41.110Z,34.50
2023-02-11T12:33:23.513Z,34.93
2023-02-11T12:36:00.552Z,34.53
2023-02-11T12:38:49.948Z,35.60
2023-02-11T12:41:53.148Z,35.87
2023-02-11T12:44:35.205Z,37.23
2023-02-11T12:47:15.261Z,34.83
2023-02-11T12:50:06.518Z,37.10
2023-02-11T12:52:50.469Z,36.83
2023-02-11T12:55:23.629Z,35.30
2023-02-11T12:57:53.613Z,37.13
2023-02-11T13:00:26.506Z,33.43
2023-02-11T13:03:01.255Z,34.63
2023-02-11T13:05:35.155Z,34.27
2023-02-11T13:08:10.797Z,36.30
2023-02-11T13:10:42.362Z,36.97
2023-02-11T13:13:19.378Z,35.53
2023-02-11T13:15:52.852Z,36.27
2023-02-11T13:18:44.961Z,38.70
2023-02-11T13:21:33.550Z,38.40
2023-02-11T13:24:10.612Z,35.20
2023-02-11T13:26:44.085Z,34.53
2023-02-11T13:29:22.885Z,38.13
2023-02-11T13:31:57.132Z,37.43
2023-02-11T13:34:27.590Z,38.97
2023-02-11T13:36:57.214Z,35.53
2023-02-11T13:39:26.292Z,36.40
2023-02-11T13:42:04.481Z,35.20
2023-02-11T13:44:35.719Z,34.87
2023-02-11T13:47:06.616Z,33.17
2023-02-11T13:49:40.653Z,34.77
2023-02-11T13:52:24.299Z,34.23
2023-02-11T13:54:55.254Z,35.70
2023-02-11T13:57:35.251Z,37.67
2023-02-11T14:00:24.921Z,35.53
2023-02-11T14:03:40.500Z,34.03
2023-02-11T14:06:33.759Z,35.93
2023-02-11T14:09:26.284Z,37.30
2023-02-11T14:11:58.001Z,39.40
2023-02-11T14:14:28.499Z,38.20
2023-02-11T14:17:31.946Z,38.07
2023-02-11T14:20:02.955Z,42.87
2023-02-11T14:22:43.777Z,38.57
2023-02-11T14:25:23.030Z,40.63
2023-02-11T14:27:57.309Z,41.27
2023-02-11T14:30:39.394Z,39.23
2023-02-11T14:33:35.329Z,37.83
2023-02-11T14:36:13.000Z,42.10
2023-02-11T14:39:01.664Z,40.23
2023-02-11T14:41:33.076Z,40.20
2023-02-11T14:44:05.568Z,36.27
2023-02-11T14:46:34.823Z,37.57
2023-02-11T14:49:06.328Z,36.93
2023-02-11T14:51:39.722Z,35.60
2023-02-11T14:54:15.313Z,35.70
2023-02-11T14:56:44.544Z,33.90
2023-02-11T14:59:19.272Z,32.13
2023-02-11T15:01:51.656Z,32.27
2023-02-11T15:04:28.001Z,33.97
2023-02-11T15:06:59.409Z,32.97
2023-02-11T15:09:35.494Z,35.13
2023-02-11T15:12:04.837Z,32.70
2023-02-11T15:14:36.203Z,30.87
2023-02-11T15:17:08.525Z,30.27
2023-02-11T15:19:41.176Z,30.10
2023-02-11T15:22:20.123Z,31.23
2023-02-11T15:25:00.012Z,28.53
2023-02-11T15:27:28.590Z,29.37
2023-02-11T15:29:56.887Z,28.53
2023-02-11T15:32:28.133Z,27.73
2023-02-11T15:34:58.504Z,28.83
2023-02-11T15:37:29.803Z,26.20
2023-02-11T15:40:10.801Z,27.90
2023-02-11T15:42:52.057Z,27.00
2023-02-11T15:45:29.082Z,27.33
2023-02-11T15:48:01.333Z,28.50
2023-02-11T15:50:31.708Z,29.07
2023-02-11T15:53:03.876Z,29.10
2023-02-11T15:55:34.393Z,26.37
2023-02-11T15:58:03.369Z,28.93
2023-02-11T16:00:36.545Z,27.87
2023-02-11T16:03:05.526Z,25.60
2023-02-11T16:05:38.130Z,28.80
2023-02-11T16:08:21.450Z,25.83
2023-02-11T16:11:03.178Z,26.20
2023-02-11T16:13:33.871Z,24.50
2023-02-11T16:16:04.881Z,25.37
2023-02-11T16:18:39.371Z,23.40
2023-02-11T16:21:15.887Z,24.63
2023-02-11T16:23:50.705Z,24.23
2023-02-11T16:26:28.038Z,22.53
2023-02-11T16:29:05.646Z,25.50
2023-02-11T16:31:35.454Z,24.20
2023-02-11T16:34:03.772Z,23.53
2023-02-11T16:36:32.018Z,22.87
2023-02-11T16:39:00.252Z,22.07
2023-02-11T16:41:29.926Z,22.07
2023-02-11T16:43:58.953Z,22.63
2023-02-11T16:46:27.614Z,21.33
2023-02-11T16:48:56.850Z,22.23
2023-02-11T16:51:25.468Z,22.80
2023-02-11T16:53:53.716Z,21.30
2023-02-11T16:56:21.913Z,23.07
2023-02-11T16:58:51.548Z,22.73
2023-02-11T17:01:19.815Z,21.13
2023-02-11T17:03:48.439Z,21.83
2023-02-11T17:06:16.921Z,21.47
2023-02-11T17:08:45.506Z,22.17
2023-02-11T17:11:16.743Z,22.00
2023-02-11T17:13:45.229Z,21.07
2023-02-11T17:16:18.853Z,21.47
2023-02-11T17:18:47.634Z,20.83
2023-02-11T17:21:16.322Z,20.03
2023-02-11T17:23:45.831Z,20.87
2023-02-11T17:26:14.079Z,21.37
2023-02-11T17:28:42.357Z,20.40
2023-02-11T17:31:11.191Z,19.17
2023-02-11T17:33:40.983Z,19.63
2023-02-11T17:36:10.834Z,19.83
2023-02-11T17:38:39.325Z,20.27
2023-02-11T17:41:07.846Z,19.57
2023-02-11T17:43:36.126Z,20.47
2023-02-11T17:46:08.395Z,19.90
2023-02-11T17:48:38.577Z,19.90
2023-02-11T17:51:22.452Z,20.33
2023-02-11T17:53:50.791Z,18.87
2023-02-11T17:56:19.263Z,19.77
2023-02-11T17:58:47.703Z,20.73
2023-02-11T18:01:16.018Z,21.17
2023-02-11T18:03:44.300Z,19.40
2023-02-11T18:06:14.353Z,21.10
2023-02-11T18:08:43.134Z,19.63
2023-02-11T18:11:11.892Z,18.20
2023-02-11T18:13:40.212Z,18.80
2023-02-11T18:16:09.529Z,21.80
2023-02-11T18:18:37.783Z,20.60
2023-02-11T18:21:08.611Z,21.63
2023-02-11T18:23:38.263Z,18.30
2023-02-11T18:26:08.780Z,18.90
2023-02-11T18:28:37.440Z,18.57
2023-02-11T18:31:07.212Z,18.33
2023-02-11T18:33:36.228Z,18.63
2023-02-11T18:36:06.980Z,18.00
2023-02-11T18:38:35.301Z,18.97
2023-02-11T18:41:05.400Z,19.57
2023-02-11T18:43:34.534Z,25.50
2023-02-11T18:46:07.390Z,19.83
2023-02-11T18:48:35.659Z,25.87
2023-02-11T18:51:03.946Z,25.67
2023-02-11T18:53:32.213Z,19.40
2023-02-11T18:56:01.374Z,20.20
2023-02-11T18:58:30.992Z,18.63
2023-02-11T19:00:59.299Z,20.83
2023-02-11T19:03:27.542Z,20.37
2023-02-11T19:05:55.827Z,22.37
2023-02-11T19:08:24.093Z,20.83
2023-02-11T19:10:52.374Z,17.37
2023-02-11T19:13:20.594Z,18.17
2023-02-11T19:15:50.642Z,20.87
2023-02-11T19:18:19.044Z,19.20
2023-02-11T19:20:47.237Z,19.90
2023-02-11T19:23:15.505Z,18.97
2023-02-11T19:25:47.001Z,17.30
2023-02-11T19:28:15.790Z,15.83
2023-02-11T19:30:44.200Z,18.23
2023-02-11T19:33:13.863Z,19.40
2023-02-11T19:35:42.083Z,17.97
2023-02-11T19:38:10.377Z,18.10
2023-02-11T19:40:38.679Z,18.93
2023-02-11T19:43:06.926Z,17.47
2023-02-11T19:45:37.941Z,17.30
2023-02-11T19:48:06.377Z,16.87
2023-02-11T19:50:36.055Z,17.47
2023-02-11T19:53:04.303Z,20.53
2023-02-11T19:55:35.296Z,19.03
2023-02-11T19:58:03.547Z,16.43
2023-02-11T20:00:31.812Z,14.27
2023-02-11T20:03:00.140Z,16.87
2023-02-11T20:05:28.587Z,14.93
2023-02-11T20:07:58.403Z,15.47
2023-02-11T20:10:27.273Z,15.07
2023-02-11T20:12:55.544Z,33.57
2023-02-11T20:15:23.788Z,32.03
2023-02-11T20:17:52.154Z,25.45
2023-02-11T20:20:20.506Z,18.27
2023-02-11T20:22:48.959Z,20.77
2023-02-11T20:25:18.777Z,21.07
2023-02-11T20:27:47.120Z,21.55
2023-02-11T20:30:17.168Z,21.05
2023-02-11T20:32:45.419Z,20.33
2023-02-11T20:35:13.656Z,17.57
2023-02-11T20:37:44.102Z,17.95
2023-02-11T20:40:13.396Z,16.50
2023-02-11T20:42:43.044Z,16.93
2023-02-11T20:45:11.550Z,15.70
2023-02-11T20:47:39.856Z,15.43
2023-02-11T20:50:09.199Z,11.70
2023-02-11T20:52:37.539Z,12.13
2023-02-11T20:55:06.402Z,11.83
2023-02-11T20:57:35.156Z,12.40
2023-02-11T21:00:05.227Z,12.97
2023-02-11T21:02:33.482Z,10.83
2023-02-11T21:05:01.816Z,9.63
2023-02-11T21:07:30.132Z,8.90
2023-02-11T21:09:58.602Z,6.93
2023-02-11T21:12:26.833Z,3.53
2023-02-11T21:14:55.203Z,2.57
2023-02-11T21:17:26.582Z,2.83
2023-02-11T21:19:54.845Z,2.60
2023-02-11T21:22:23.153Z,2.40
2023-02-11T21:24:51.566Z,2.33
2023-02-11T21:27:20.166Z,2.50
2023-02-11T21:29:54.290Z,2.20
2023-02-11T21:32:24.502Z,2.10
2023-02-11T21:34:54.035Z,1.80
2023-02-11T21:37:23.269Z,2.10
2023-02-11T21:39:51.666Z,2.20
2023-02-11T21:42:20.051Z,2.20
2023-02-11T21:44:48.520Z,2.00
2023-02-11T21:47:16.844Z,1.90
2023-02-11T21:49:46.491Z,2.23
2023-02-11T21:52:15.128Z,2.00
2023-02-11T21:54:43.580Z,1.97
2023-02-11T21:57:12.040Z,1.83
2023-02-11T21:59:40.391Z,2.13
2023-02-11T22:02:10.098Z,2.20
2023-02-11T22:04:38.516Z,2.27
2023-02-11T22:07:08.360Z,2.20
2023-02-11T22:09:38.933Z,2.90
2023-02-11T22:12:08.779Z,2.27
2023-02-11T22:14:37.360Z,1.87
2023-02-11T22:17:05.862Z,2.20
2023-02-11T22:19:34.334Z,1.77
2023-02-11T22:22:02.684Z,2.77
2023-02-11T22:24:32.410Z,2.40
2023-02-11T22:27:01.105Z,1.70
2023-02-11T22:29:29.412Z,2.10
2023-02-11T22:31:57.862Z,1.90
2023-02-11T22:34:26.372Z,1.63
2023-02-11T22:36:54.787Z,1.60
2023-02-11T22:39:23.264Z,1.93
2023-02-11T22:41:54.517Z,1.57
2023-02-11T22:44:23.078Z,2.00
2023-02-11T22:46:51.571Z,1.53
2023-02-11T22:49:21.934Z,1.40
2023-02-11T22:51:50.563Z,1.50
2023-02-11T22:54:20.340Z,2.10
2023-02-11T22:56:52.910Z,2.20
2023-02-11T22:59:21.649Z,2.10
2023-02-11T23:01:50.151Z,2.90
2023-02-11T23:04:20.966Z,3.63
2023-02-11T23:06:50.114Z,2.47
2023-02-11T23:09:18.589Z,2.50
2023-02-11T23:11:48.609Z,3.20
2023-02-11T23:14:18.204Z,3.03
2023-02-11T23:16:46.569Z,1.63
2023-02-11T23:19:15.069Z,2.10
2023-02-11T23:21:43.776Z,1.67
2023-02-11T23:24:14.710Z,1.50
2023-02-11T23:26:44.262Z,1.23
2023-02-11T23:29:13.470Z,1.43
2023-02-11T23:31:46.081Z,1.50
2023-02-11T23:34:17.142Z,1.20
2023-02-11T23:36:45.643Z,1.53
2023-02-11T23:39:16.107Z,1.47
2023-02-11T23:41:44.537Z,1.50
2023-02-11T23:44:13.189Z,1.00
2023-02-11T23:46:42.991Z,1.20
2023-02-11T23:49:11.573Z,0.93
2023-02-11T23:51:39.847Z,3.37
2023-02-11T23:54:08.157Z,2.90
2023-02-11T23:56:37.651Z,1.60
2023-02-11T23:59:06.753Z,1.60
